sensor_id;sensor_type;location;lat;lon;timestamp;pressure;altitude;pressure_sealevel;temperature;humidity
2000;BME280;1001;48.87406500;9.59633600;2023-03-16T00:01:17;95367.38;;;0.82;100.00
2000;BME280;1001;48.87406500;9.59633600;2023-03-16T00:03:44;95362.03;;;0.84;100.00
2000;BME280;1001;48.87406500;9.59633600;2023-03-16T00:06:10;95370.56;;;0.76;100.00
2000;BME280;1001;48.87406500;9.59633600;2023-03-16T00:08:37;95356.25;;;0.74;100.00
2000;BME280;1001;48.87406500;9.59633600;2023-03-16T00:11:04;95360.94;;;0.78;100.00
2000;BME280;1001;48.87406500;9.59633600;2023-03-16T00:13:31;95371.88;;;0.80;100.00
2000;BME280;1001;48.87406500;9.59633600;2023-03-16T00:16:01;95355.78;;;0.78;100.00
2000;BME280;1001;48.87406500;9.59633600;2023-03-16T00:18:28;95367.50;;;0.81;100.00
2000;BME280;1001;48.87406500;9.59633600;2023-03-16T00:20:57;95363.66;;;0.77;100.00
2000;BME280;1001;48.87406500;9.59633600;2023-03-16T00:23:26;95368.16;;;0.75;100.00
2000;BME280;1001;48.87406500;9.59633600;2023-03-16T00:25:54;95367.53;;;0.73;100.00
2000;BME280;1001;48.87406500;9.59633600;2023-03-16T00:28:20;95366.41;;;0.67;100.00
2000;BME280;1001;48.87406500;9.59633600;2023-03-16T00:30:47;95366.41;;;0.51;100.00
2000;BME280;1001;48.87406500;9.59633600;2023-03-16T00:33:15;95370.13;;;0.56;100.00
2000;BME280;1001;48.87406500;9.59633600;2023-03-16T00:35:45;95364.13;;;0.64;100.00
2000;BME280;1001;48.87406500;9.59633600;2023-03-16T00:38:14;95363.38;;;0.63;100.00
2000;BME280;1001;48.87406500;9.59633600;2023-03-16T00:40:40;95369.47;;;0.62;100.00
2000;BME280;1001;48.87406500;9.59633600;2023-03-16T00:43:07;95369.13;;;0.57;100.00
2000;BME280;1001;48.87406500;9.59633600;2023-03-16T00:45:34;95376.88;;;0.65;100.00
2000;BME280;1001;48.87406500;9.59633600;2023-03-16T00:48:00;95369.63;;;0.69;100.00
2000;BME280;1001;48.87406500;9.59633600;2023-03-16T00:50:28;95365.91;;;0.72;100.00
2000;BME280;1001;48.87406500;9.59633600;2023-03-16T00:52:55;95360.75;;;0.72;100.00
2000;BME280;1001;48.87406500;9.59633600;2023-03-16T00:55:22;95361.25;;;0.75;100.00
2000;BME280;1001;48.87406500;9.59633600;2023-03-16T00:57:48;95372.81;;;0.71;100.00
2000;BME280;1001;48.87406500;9.59633600;2023-03-16T01:00:16;95363.97;;;0.82;100.00
2000;BME280;1001;48.87406500;9.59633600;2023-03-16T01:02:45;95364.28;;;0.79;100.00
2000;BME280;1001;48.87406500;9.59633600;2023-03-16T01:05:11;95363.34;;;0.72;100.00
2000;BME280;1001;48.87406500;9.59633600;2023-03-16T01:07:41;95363.66;;;0.52;100.00
2000;BME280;1001;48.87406500;9.59633600;2023-03-16T01:10:10;95368.66;;;0.46;100.00
2000;BME280;1001;48.87406500;9.59633600;2023-03-16T01:12:37;95353.38;;;0.52;100.00
2000;BME280;1001;48.87406500;9.59633600;2023-03-16T01:15:04;95366.56;;;0.49;100.00
2000;BME280;1001;48.87406500;9.59633600;2023-03-16T01:17:31;95361.56;;;0.48;100.00
2000;BME280;1001;48.87406500;9.59633600;2023-03-16T01:19:59;95356.59;;;0.46;100.00
2000;BME280;1001;48.87406500;9.59633600;2023-03-16T01:22:26;95353.06;;;0.47;100.00
2000;BME280;1001;48.87406500;9.59633600;2023-03-16T01:24:54;95351.94;;;0.34;100.00
2000;BME280;1001;48.87406500;9.59633600;2023-03-16T01:27:21;95353.53;;;0.43;100.00
2000;BME280;1001;48.87406500;9.59633600;2023-03-16T01:29:50;95355.63;;;0.47;100.00
2000;BME280;1001;48.87406500;9.59633600;2023-03-16T01:32:17;95354.19;;;0.45;100.00
2000;BME280;1001;48.87406500;9.59633600;2023-03-16T01:34:43;95352.75;;;0.42;100.00
2000;BME280;1001;48.87406500;9.59633600;2023-03-16T01:37:10;95349.03;;;0.37;100.00
2000;BME280;1001;48.87406500;9.59633600;2023-03-16T01:39:36;95346.44;;;0.29;100.00
2000;BME280;1001;48.87406500;9.59633600;2023-03-16T01:42:05;95343.56;;;0.32;100.00
2000;BME280;1001;48.87406500;9.59633600;2023-03-16T01:44:50;95346.94;;;0.48;100.00
2000;BME280;1001;48.87406500;9.59633600;2023-03-16T01:47:18;95340.03;;;0.49;100.00
2000;BME280;1001;48.87406500;9.59633600;2023-03-16T01:49:45;95343.09;;;0.44;100.00
2000;BME280;1001;48.87406500;9.59633600;2023-03-16T01:52:14;95340.03;;;0.41;100.00
2000;BME280;1001;48.87406500;9.59633600;2023-03-16T01:54:45;95335.38;;;0.28;100.00
2000;BME280;1001;48.87406500;9.59633600;2023-03-16T01:57:17;95338.75;;;0.29;100.00
2000;BME280;1001;48.87406500;9.59633600;2023-03-16T01:59:48;95335.84;;;0.32;100.00
2000;BME280;1001;48.87406500;9.59633600;2023-03-16T02:02:19;95337.31;;;0.34;100.00
2000;BME280;1001;48.87406500;9.59633600;2023-03-16T02:04:49;95331.53;;;0.32;100.00
2000;BME280;1001;48.87406500;9.59633600;2023-03-16T02:07:18;95337.97;;;0.28;100.00
2000;BME280;1001;48.87406500;9.59633600;2023-03-16T02:09:47;95338.28;;;0.25;100.00
2000;BME280;1001;48.87406500;9.59633600;2023-03-16T02:12:17;95336.97;;;0.29;100.00
2000;BME280;1001;48.87406500;9.59633600;2023-03-16T02:14:47;95345.47;;;0.22;100.00
2000;BME280;1001;48.87406500;9.59633600;2023-03-16T02:17:15;95339.88;;;0.26;100.00
2000;BME280;1001;48.87406500;9.59633600;2023-03-16T02:19:51;95337.78;;;0.30;100.00
2000;BME280;1001;48.87406500;9.59633600;2023-03-16T02:22:19;95337.28;;;0.26;100.00
2000;BME280;1001;48.87406500;9.59633600;2023-03-16T02:24:49;95333.78;;;0.27;100.00
2000;BME280;1001;48.87406500;9.59633600;2023-03-16T02:27:24;95323.66;;;0.26;100.00
2000;BME280;1001;48.87406500;9.59633600;2023-03-16T02:29:59;95321.41;;;0.23;100.00
2000;BME280;1001;48.87406500;9.59633600;2023-03-16T02:32:30;95324.78;;;0.23;100.00
2000;BME280;1001;48.87406500;9.59633600;2023-03-16T02:34:58;95317.69;;;0.17;100.00
2000;BME280;1001;48.87406500;9.59633600;2023-03-16T02:37:26;95307.41;;;0.01;100.00
2000;BME280;1001;48.87406500;9.59633600;2023-03-16T02:39:53;95307.41;;;0.01;100.00
2000;BME280;1001;48.87406500;9.59633600;2023-03-16T02:42:22;95314.63;;;-0.03;100.00
2000;BME280;1001;48.87406500;9.59633600;2023-03-16T02:44:53;95312.84;;;-0.02;100.00
2000;BME280;1001;48.87406500;9.59633600;2023-03-16T02:47:27;95307.72;;;-0.10;100.00
2000;BME280;1001;48.87406500;9.59633600;2023-03-16T02:49:55;95311.56;;;-0.06;100.00
2000;BME280;1001;48.87406500;9.59633600;2023-03-16T02:52:22;95305.94;;;-0.18;100.00
2000;BME280;1001;48.87406500;9.59633600;2023-03-16T02:54:48;95302.25;;;-0.15;100.00
2000;BME280;1001;48.87406500;9.59633600;2023-03-16T02:57:15;95301.56;;;-0.25;100.00
2000;BME280;1001;48.87406500;9.59633600;2023-03-16T02:59:42;95296.59;;;-0.27;100.00
2000;BME280;1001;48.87406500;9.59633600;2023-03-16T03:02:08;95304.00;;;-0.24;100.00
2000;BME280;1001;48.87406500;9.59633600;2023-03-16T03:04:37;95293.56;;;-0.22;100.00
2000;BME280;1001;48.87406500;9.59633600;2023-03-16T03:07:03;95290.81;;;-0.21;100.00
2000;BME280;1001;48.87406500;9.59633600;2023-03-16T03:09:30;95294.69;;;-0.17;100.00
2000;BME280;1001;48.87406500;9.59633600;2023-03-16T03:11:58;95302.41;;;-0.17;100.00
2000;BME280;1001;48.87406500;9.59633600;2023-03-16T03:14:24;95292.78;;;-0.15;100.00
2000;BME280;1001;48.87406500;9.59633600;2023-03-16T03:16:53;95290.03;;;-0.13;100.00
2000;BME280;1001;48.87406500;9.59633600;2023-03-16T03:19:19;95299.84;;;-0.09;100.00
2000;BME280;1001;48.87406500;9.59633600;2023-03-16T03:21:49;95293.56;;;-0.06;100.00
2000;BME280;1001;48.87406500;9.59633600;2023-03-16T03:24:16;95290.19;;;-0.15;100.00
2000;BME280;1001;48.87406500;9.59633600;2023-03-16T03:26:43;95289.56;;;-0.17;100.00
2000;BME280;1001;48.87406500;9.59633600;2023-03-16T03:29:10;95307.84;;;-0.20;100.00
2000;BME280;1001;48.87406500;9.59633600;2023-03-16T03:31:37;95301.91;;;-0.20;100.00
2000;BME280;1001;48.87406500;9.59633600;2023-03-16T03:34:03;95298.34;;;-0.27;100.00
2000;BME280;1001;48.87406500;9.59633600;2023-03-16T03:36:31;95289.22;;;-0.22;100.00
2000;BME280;1001;48.87406500;9.59633600;2023-03-16T03:38:59;95288.56;;;-0.32;100.00
2000;BME280;1001;48.87406500;9.59633600;2023-03-16T03:41:27;95281.03;;;-0.25;100.00
2000;BME280;1001;48.87406500;9.59633600;2023-03-16T03:43:54;95288.72;;;-0.33;100.00
2000;BME280;1001;48.87406500;9.59633600;2023-03-16T03:46:20;95282.78;;;-0.34;100.00
2000;BME280;1001;48.87406500;9.59633600;2023-03-16T03:48:47;95281.31;;;-0.36;100.00
2000;BME280;1001;48.87406500;9.59633600;2023-03-16T03:51:14;95286.59;;;-0.38;100.00
2000;BME280;1001;48.87406500;9.59633600;2023-03-16T03:53:40;95282.44;;;-0.39;100.00
2000;BME280;1001;48.87406500;9.59633600;2023-03-16T03:56:08;95276.16;;;-0.44;100.00
2000;BME280;1001;48.87406500;9.59633600;2023-03-16T03:58:35;95262.47;;;-0.61;100.00
2000;BME280;1001;48.87406500;9.59633600;2023-03-16T04:01:02;95265.88;;;-0.52;100.00
2000;BME280;1001;48.87406500;9.59633600;2023-03-16T04:03:29;95275.81;;;-0.57;100.00
2000;BME280;1001;48.87406500;9.59633600;2023-03-16T04:05:55;95277.56;;;-0.58;100.00
2000;BME280;1001;48.87406500;9.59633600;2023-03-16T04:08:22;95266.03;;;-0.62;100.00
2000;BME280;1001;48.87406500;9.59633600;2023-03-16T04:10:48;95258.78;;;-0.66;100.00
2000;BME280;1001;48.87406500;9.59633600;2023-03-16T04:13:17;95250.88;;;-0.73;100.00
2000;BME280;1001;48.87406500;9.59633600;2023-03-16T04:15:43;95260.03;;;-0.71;100.00
2000;BME280;1001;48.87406500;9.59633600;2023-03-16T04:18:11;95255.06;;;-0.72;100.00
2000;BME280;1001;48.87406500;9.59633600;2023-03-16T04:20:38;95260.06;;;-0.62;100.00
2000;BME280;1001;48.87406500;9.59633600;2023-03-16T04:23:04;95261.34;;;-0.66;100.00
2000;BME280;1001;48.87406500;9.59633600;2023-03-16T04:25:31;95251.56;;;-0.71;100.00
2000;BME280;1001;48.87406500;9.59633600;2023-03-16T04:27:59;95247.50;;;-0.82;100.00
2000;BME280;1001;48.87406500;9.59633600;2023-03-16T04:30:27;95253.78;;;-0.68;100.00
2000;BME280;1001;48.87406500;9.59633600;2023-03-16T04:32:55;95248.66;;;-0.68;100.00
2000;BME280;1001;48.87406500;9.59633600;2023-03-16T04:35:21;95253.16;;;-0.70;100.00
2000;BME280;1001;48.87406500;9.59633600;2023-03-16T04:37:48;95259.91;;;-0.69;100.00
2000;BME280;1001;48.87406500;9.59633600;2023-03-16T04:40:15;95256.34;;;-0.68;100.00
2000;BME280;1001;48.87406500;9.59633600;2023-03-16T04:42:42;95249.78;;;-0.71;100.00
2000;BME280;1001;48.87406500;9.59633600;2023-03-16T04:45:10;95250.41;;;-0.77;100.00
2000;BME280;1001;48.87406500;9.59633600;2023-03-16T04:47:38;95243.66;;;-0.78;100.00
2000;BME280;1001;48.87406500;9.59633600;2023-03-16T04:50:05;95236.91;;;-0.87;100.00
2000;BME280;1001;48.87406500;9.59633600;2023-03-16T04:52:32;95237.41;;;-0.75;100.00
2000;BME280;1001;48.87406500;9.59633600;2023-03-16T04:54:58;95241.88;;;-0.85;100.00
2000;BME280;1001;48.87406500;9.59633600;2023-03-16T04:57:25;95245.56;;;-0.88;100.00
2000;BME280;1001;48.87406500;9.59633600;2023-03-16T04:59:52;95244.13;;;-0.82;100.00
2000;BME280;1001;48.87406500;9.59633600;2023-03-16T05:02:18;95246.34;;;-0.87;100.00
2000;BME280;1001;48.87406500;9.59633600;2023-03-16T05:04:47;95246.22;;;-0.86;100.00
2000;BME280;1001;48.87406500;9.59633600;2023-03-16T05:07:14;95243.00;;;-0.80;100.00
2000;BME280;1001;48.87406500;9.59633600;2023-03-16T05:09:40;95246.88;;;-0.76;100.00
2000;BME280;1001;48.87406500;9.59633600;2023-03-16T05:12:08;95243.53;;;-0.76;100.00
2000;BME280;1001;48.87406500;9.59633600;2023-03-16T05:14:35;95236.47;;;-0.74;100.00
2000;BME280;1001;48.87406500;9.59633600;2023-03-16T05:17:01;95244.81;;;-0.72;100.00
2000;BME280;1001;48.87406500;9.59633600;2023-03-16T05:19:28;95249.13;;;-0.73;100.00
2000;BME280;1001;48.87406500;9.59633600;2023-03-16T05:21:57;95250.41;;;-0.69;100.00
2000;BME280;1001;48.87406500;9.59633600;2023-03-16T05:24:23;95248.22;;;-0.55;100.00
2000;BME280;1001;48.87406500;9.59633600;2023-03-16T05:26:50;95251.13;;;-0.50;100.00
2000;BME280;1001;48.87406500;9.59633600;2023-03-16T05:29:17;95246.94;;;-0.51;100.00
2000;BME280;1001;48.87406500;9.59633600;2023-03-16T05:31:44;95247.91;;;-0.52;100.00
2000;BME280;1001;48.87406500;9.59633600;2023-03-16T05:34:11;95244.38;;;-0.51;100.00
2000;BME280;1001;48.87406500;9.59633600;2023-03-16T05:36:38;95240.34;;;-0.54;100.00
2000;BME280;1001;48.87406500;9.59633600;2023-03-16T05:39:06;95231.84;;;-0.54;100.00
2000;BME280;1001;48.87406500;9.59633600;2023-03-16T05:41:33;95237.00;;;-0.46;100.00
2000;BME280;1001;48.87406500;9.59633600;2023-03-16T05:44:00;95241.50;;;-0.40;100.00
2000;BME280;1001;48.87406500;9.59633600;2023-03-16T05:46:28;95242.16;;;-0.38;100.00
2000;BME280;1001;48.87406500;9.59633600;2023-03-16T05:48:55;95245.53;;;-0.30;100.00
2000;BME280;1001;48.87406500;9.59633600;2023-03-16T05:51:22;95245.34;;;-0.28;100.00
2000;BME280;1001;48.87406500;9.59633600;2023-03-16T05:53:50;95250.34;;;-0.19;100.00
2000;BME280;1001;48.87406500;9.59633600;2023-03-16T05:56:22;95244.09;;;-0.16;100.00
2000;BME280;1001;48.87406500;9.59633600;2023-03-16T05:58:49;95243.94;;;-0.23;100.00
2000;BME280;1001;48.87406500;9.59633600;2023-03-16T06:01:16;95244.59;;;-0.13;100.00
2000;BME280;1001;48.87406500;9.59633600;2023-03-16T06:03:42;95237.84;;;-0.06;100.00
2000;BME280;1001;48.87406500;9.59633600;2023-03-16T06:06:09;95240.41;;;-0.06;100.00
2000;BME280;1001;48.87406500;9.59633600;2023-03-16T06:08:36;95240.56;;;0.01;100.00
2000;BME280;1001;48.87406500;9.59633600;2023-03-16T06:11:03;95241.72;;;0.07;100.00
2000;BME280;1001;48.87406500;9.59633600;2023-03-16T06:13:31;95238.00;;;0.17;100.00
2000;BME280;1001;48.87406500;9.59633600;2023-03-16T06:15:57;95245.22;;;0.06;100.00
2000;BME280;1001;48.87406500;9.59633600;2023-03-16T06:18:24;95238.97;;;0.08;100.00
2000;BME280;1001;48.87406500;9.59633600;2023-03-16T06:20:50;95243.16;;;0.09;100.00
2000;BME280;1001;48.87406500;9.59633600;2023-03-16T06:23:17;95233.19;;;0.14;100.00
2000;BME280;1001;48.87406500;9.59633600;2023-03-16T06:25:45;95240.56;;;0.25;100.00
2000;BME280;1001;48.87406500;9.59633600;2023-03-16T06:28:12;95243.47;;;0.30;100.00
2000;BME280;1001;48.87406500;9.59633600;2023-03-16T06:30:40;95242.16;;;0.34;100.00
2000;BME280;1001;48.87406500;9.59633600;2023-03-16T06:33:07;95243.09;;;0.33;100.00
2000;BME280;1001;48.87406500;9.59633600;2023-03-16T06:35:34;95237.16;;;0.41;100.00
2000;BME280;1001;48.87406500;9.59633600;2023-03-16T06:38:00;95232.19;;;0.39;100.00
2000;BME280;1001;48.87406500;9.59633600;2023-03-16T06:40:27;95236.84;;;0.44;100.00
2000;BME280;1001;48.87406500;9.59633600;2023-03-16T06:42:54;95249.53;;;0.61;100.00
2000;BME280;1001;48.87406500;9.59633600;2023-03-16T06:45:20;95238.56;;;0.76;100.00
2000;BME280;1001;48.87406500;9.59633600;2023-03-16T06:47:48;95239.78;;;0.88;100.00
2000;BME280;1001;48.87406500;9.59633600;2023-03-16T06:50:16;95245.88;;;0.95;100.00
2000;BME280;1001;48.87406500;9.59633600;2023-03-16T06:52:43;95234.44;;;0.97;100.00
2000;BME280;1001;48.87406500;9.59633600;2023-03-16T06:55:10;95237.00;;;1.05;100.00
2000;BME280;1001;48.87406500;9.59633600;2023-03-16T06:57:38;95243.06;;;1.20;100.00
2000;BME280;1001;48.87406500;9.59633600;2023-03-16T07:00:07;95240.09;;;1.31;100.00
2000;BME280;1001;48.87406500;9.59633600;2023-03-16T07:02:34;95240.69;;;1.42;100.00
2000;BME280;1001;48.87406500;9.59633600;2023-03-16T07:05:02;95239.19;;;1.47;100.00
2000;BME280;1001;48.87406500;9.59633600;2023-03-16T07:07:29;95239.03;;;1.49;100.00
2000;BME280;1001;48.87406500;9.59633600;2023-03-16T07:09:55;95251.09;;;1.56;100.00
2000;BME280;1001;48.87406500;9.59633600;2023-03-16T07:12:22;95242.84;;;1.61;100.00
2000;BME280;1001;48.87406500;9.59633600;2023-03-16T07:14:49;95244.72;;;1.67;100.00
2000;BME280;1001;48.87406500;9.59633600;2023-03-16T07:17:15;95255.25;;;1.80;100.00
2000;BME280;1001;48.87406500;9.59633600;2023-03-16T07:19:42;95250.56;;;1.83;100.00
2000;BME280;1001;48.87406500;9.59633600;2023-03-16T07:22:10;95255.84;;;1.90;100.00
2000;BME280;1001;48.87406500;9.59633600;2023-03-16T07:24:37;95261.91;;;1.97;100.00
2000;BME280;1001;48.87406500;9.59633600;2023-03-16T07:27:03;95260.25;;;2.04;100.00
2000;BME280;1001;48.87406500;9.59633600;2023-03-16T07:29:30;95257.34;;;2.07;100.00
2000;BME280;1001;48.87406500;9.59633600;2023-03-16T07:31:57;95262.16;;;2.10;100.00
2000;BME280;1001;48.87406500;9.59633600;2023-03-16T07:34:23;95258.19;;;2.22;100.00
2000;BME280;1001;48.87406500;9.59633600;2023-03-16T07:36:50;95269.56;;;2.28;100.00
2000;BME280;1001;48.87406500;9.59633600;2023-03-16T07:39:18;95257.97;;;2.32;100.00
2000;BME280;1001;48.87406500;9.59633600;2023-03-16T07:41:45;95266.59;;;2.53;100.00
2000;BME280;1001;48.87406500;9.59633600;2023-03-16T07:44:12;95266.78;;;2.52;100.00
2000;BME280;1001;48.87406500;9.59633600;2023-03-16T07:46:39;95268.75;;;2.50;100.00
2000;BME280;1001;48.87406500;9.59633600;2023-03-16T07:49:06;95270.66;;;2.70;100.00
2000;BME280;1001;48.87406500;9.59633600;2023-03-16T07:51:34;95276.72;;;2.92;100.00
2000;BME280;1001;48.87406500;9.59633600;2023-03-16T07:54:00;95261.78;;;2.88;100.00
2000;BME280;1001;48.87406500;9.59633600;2023-03-16T07:56:29;95264.25;;;2.81;100.00
2000;BME280;1001;48.87406500;9.59633600;2023-03-16T07:58:56;95273.25;;;2.85;100.00
2000;BME280;1001;48.87406500;9.59633600;2023-03-16T08:01:23;95267.56;;;2.90;100.00
2000;BME280;1001;48.87406500;9.59633600;2023-03-16T08:03:49;95260.25;;;3.08;100.00
2000;BME280;1001;48.87406500;9.59633600;2023-03-16T08:06:17;95256.22;;;3.05;100.00
2000;BME280;1001;48.87406500;9.59633600;2023-03-16T08:08:44;95261.94;;;3.15;100.00
2000;BME280;1001;48.87406500;9.59633600;2023-03-16T08:11:11;95270.56;;;3.22;100.00
2000;BME280;1001;48.87406500;9.59633600;2023-03-16T08:13:39;95275.47;;;3.47;100.00
2000;BME280;1001;48.87406500;9.59633600;2023-03-16T08:16:08;95269.13;;;3.49;100.00
2000;BME280;1001;48.87406500;9.59633600;2023-03-16T08:18:35;95265.19;;;3.53;100.00
2000;BME280;1001;48.87406500;9.59633600;2023-03-16T08:21:02;95266.81;;;3.54;100.00
2000;BME280;1001;48.87406500;9.59633600;2023-03-16T08:23:29;95272.91;;;3.68;100.00
2000;BME280;1001;48.87406500;9.59633600;2023-03-16T08:25:57;95271.06;;;3.97;100.00
2000;BME280;1001;48.87406500;9.59633600;2023-03-16T08:28:25;95281.16;;;3.92;100.00
2000;BME280;1001;48.87406500;9.59633600;2023-03-16T08:30:53;95274.56;;;3.90;99.56
2000;BME280;1001;48.87406500;9.59633600;2023-03-16T08:33:22;95280.22;;;4.00;100.00
2000;BME280;1001;48.87406500;9.59633600;2023-03-16T08:35:50;95276.97;;;3.91;97.58
2000;BME280;1001;48.87406500;9.59633600;2023-03-16T08:38:17;95274.56;;;3.90;98.33
2000;BME280;1001;48.87406500;9.59633600;2023-03-16T08:40:43;95271.59;;;3.93;99.29
2000;BME280;1001;48.87406500;9.59633600;2023-03-16T08:43:13;95275.19;;;4.13;99.53
2000;BME280;1001;48.87406500;9.59633600;2023-03-16T08:45:39;95268.69;;;4.02;97.11
2000;BME280;1001;48.87406500;9.59633600;2023-03-16T08:48:08;95268.47;;;4.19;97.06
2000;BME280;1001;48.87406500;9.59633600;2023-03-16T08:50:38;95275.50;;;4.25;97.86
2000;BME280;1001;48.87406500;9.59633600;2023-03-16T08:53:05;95275.09;;;4.21;96.59
2000;BME280;1001;48.87406500;9.59633600;2023-03-16T08:55:32;95279.25;;;4.43;96.76
2000;BME280;1001;48.87406500;9.59633600;2023-03-16T08:57:59;95273.53;;;4.54;96.22
2000;BME280;1001;48.87406500;9.59633600;2023-03-16T09:00:26;95270.41;;;4.59;94.53
2000;BME280;1001;48.87406500;9.59633600;2023-03-16T09:02:54;95271.16;;;4.80;95.30
2000;BME280;1001;48.87406500;9.59633600;2023-03-16T09:05:23;95259.88;;;4.95;94.07
2000;BME280;1001;48.87406500;9.59633600;2023-03-16T09:07:50;95261.84;;;5.20;95.70
2000;BME280;1001;48.87406500;9.59633600;2023-03-16T09:10:18;95257.34;;;5.01;92.33
2000;BME280;1001;48.87406500;9.59633600;2023-03-16T09:12:47;95245.13;;;4.89;91.61
2000;BME280;1001;48.87406500;9.59633600;2023-03-16T09:15:15;95248.31;;;4.91;91.60
2000;BME280;1001;48.87406500;9.59633600;2023-03-16T09:17:42;95252.94;;;5.02;92.72
2000;BME280;1001;48.87406500;9.59633600;2023-03-16T09:20:11;95257.34;;;5.01;91.07
2000;BME280;1001;48.87406500;9.59633600;2023-03-16T09:22:39;95260.38;;;5.11;89.49
2000;BME280;1001;48.87406500;9.59633600;2023-03-16T09:25:07;95261.06;;;5.20;91.33
2000;BME280;1001;48.87406500;9.59633600;2023-03-16T09:27:35;95254.72;;;5.35;90.13
2000;BME280;1001;48.87406500;9.59633600;2023-03-16T09:30:02;95249.63;;;5.55;89.43
2000;BME280;1001;48.87406500;9.59633600;2023-03-16T09:32:29;95250.47;;;5.62;89.93
2000;BME280;1001;48.87406500;9.59633600;2023-03-16T09:34:56;95245.56;;;5.87;91.69
2000;BME280;1001;48.87406500;9.59633600;2023-03-16T09:37:22;95252.91;;;5.77;87.18
2000;BME280;1001;48.87406500;9.59633600;2023-03-16T09:39:51;95248.91;;;5.81;84.34
2000;BME280;1001;48.87406500;9.59633600;2023-03-16T09:42:23;95260.50;;;5.78;84.14
2000;BME280;1001;48.87406500;9.59633600;2023-03-16T09:45:05;95264.09;;;5.84;83.55
2000;BME280;1001;48.87406500;9.59633600;2023-03-16T09:47:34;95256.16;;;5.92;86.32
2000;BME280;1001;48.87406500;9.59633600;2023-03-16T09:50:05;95252.59;;;5.99;83.96
2000;BME280;1001;48.87406500;9.59633600;2023-03-16T09:52:38;95250.63;;;6.21;81.32
2000;BME280;1001;48.87406500;9.59633600;2023-03-16T09:55:17;95232.47;;;6.54;80.52
2000;BME280;1001;48.87406500;9.59633600;2023-03-16T09:57:50;95230.28;;;6.31;81.44
2000;BME280;1001;48.87406500;9.59633600;2023-03-16T10:00:20;95229.50;;;6.50;81.79
2000;BME280;1001;48.87406500;9.59633600;2023-03-16T10:03:11;95239.47;;;6.60;79.53
2000;BME280;1001;48.87406500;9.59633600;2023-03-16T10:05:41;95237.28;;;6.50;78.72
2000;BME280;1001;48.87406500;9.59633600;2023-03-16T10:08:12;95234.69;;;6.57;76.78
2000;BME280;1001;48.87406500;9.59633600;2023-03-16T10:13:50;95228.88;;;6.61;77.99
2000;BME280;1001;48.87406500;9.59633600;2023-03-16T10:16:22;95226.47;;;6.73;76.81
2000;BME280;1001;48.87406500;9.59633600;2023-03-16T10:18:56;95223.44;;;6.89;77.36
2000;BME280;1001;48.87406500;9.59633600;2023-03-16T10:21:25;95232.22;;;7.01;78.33
2000;BME280;1001;48.87406500;9.59633600;2023-03-16T10:23:56;95224.81;;;7.11;76.54
2000;BME280;1001;48.87406500;9.59633600;2023-03-16T10:26:34;95226.22;;;7.07;74.77
2000;BME280;1001;48.87406500;9.59633600;2023-03-16T10:29:03;95221.38;;;7.17;77.15
2000;BME280;1001;48.87406500;9.59633600;2023-03-16T10:31:33;95232.28;;;7.45;75.45
2000;BME280;1001;48.87406500;9.59633600;2023-03-16T10:34:04;95226.72;;;7.42;74.91
2000;BME280;1001;48.87406500;9.59633600;2023-03-16T10:36:32;95237.44;;;7.59;73.96
2000;BME280;1001;48.87406500;9.59633600;2023-03-16T10:39:02;95228.63;;;7.66;75.23
2000;BME280;1001;48.87406500;9.59633600;2023-03-16T10:41:32;95227.22;;;7.64;74.52
2000;BME280;1001;48.87406500;9.59633600;2023-03-16T10:44:01;95227.53;;;7.80;76.63
2000;BME280;1001;48.87406500;9.59633600;2023-03-16T10:46:37;95230.28;;;7.92;72.54
2000;BME280;1001;48.87406500;9.59633600;2023-03-16T10:49:05;95219.78;;;8.05;72.67
2000;BME280;1001;48.87406500;9.59633600;2023-03-16T10:51:42;95217.69;;;8.20;70.52
2000;BME280;1001;48.87406500;9.59633600;2023-03-16T10:54:14;95210.47;;;8.53;70.36
2000;BME280;1001;48.87406500;9.59633600;2023-03-16T10:56:42;95211.56;;;8.39;70.29
2000;BME280;1001;48.87406500;9.59633600;2023-03-16T10:59:20;95209.16;;;8.38;70.91
2000;BME280;1001;48.87406500;9.59633600;2023-03-16T11:01:52;95206.50;;;8.13;68.23
2000;BME280;1001;48.87406500;9.59633600;2023-03-16T11:04:19;95206.28;;;8.14;67.82
2000;BME280;1001;48.87406500;9.59633600;2023-03-16T11:06:50;95204.59;;;8.33;67.93
2000;BME280;1001;48.87406500;9.59633600;2023-03-16T11:09:23;95204.59;;;8.33;67.18
2000;BME280;1001;48.87406500;9.59633600;2023-03-16T11:11:51;95215.53;;;8.10;67.96
2000;BME280;1001;48.87406500;9.59633600;2023-03-16T11:14:21;95222.47;;;8.23;68.84
2000;BME280;1001;48.87406500;9.59633600;2023-03-16T11:16:57;95226.66;;;8.31;67.19
2000;BME280;1001;48.87406500;9.59633600;2023-03-16T11:19:28;95228.28;;;8.56;66.81
2000;BME280;1001;48.87406500;9.59633600;2023-03-16T11:21:59;95231.63;;;8.01;63.53
2000;BME280;1001;48.87406500;9.59633600;2023-03-16T11:24:33;95218.56;;;8.07;64.61
2000;BME280;1001;48.87406500;9.59633600;2023-03-16T11:27:13;95207.56;;;8.05;65.36
2000;BME280;1001;48.87406500;9.59633600;2023-03-16T11:29:50;95206.44;;;8.26;67.12
2000;BME280;1001;48.87406500;9.59633600;2023-03-16T11:32:26;95203.06;;;8.19;64.02
2000;BME280;1001;48.87406500;9.59633600;2023-03-16T11:34:55;95210.69;;;8.20;65.08
2000;BME280;1001;48.87406500;9.59633600;2023-03-16T11:37:31;95218.75;;;8.44;63.22
2000;BME280;1001;48.87406500;9.59633600;2023-03-16T11:40:08;95206.78;;;8.36;63.34
2000;BME280;1001;48.87406500;9.59633600;2023-03-16T11:42:50;95198.16;;;8.36;62.11
2000;BME280;1001;48.87406500;9.59633600;2023-03-16T11:45:28;95191.25;;;8.48;62.86
2000;BME280;1001;48.87406500;9.59633600;2023-03-16T11:48:13;95183.22;;;8.49;65.75
2000;BME280;1001;48.87406500;9.59633600;2023-03-16T11:50:52;95179.44;;;8.70;64.26
2000;BME280;1001;48.87406500;9.59633600;2023-03-16T11:53:31;95179.69;;;9.05;65.78